Terminal Aerodrome Forecast
Issued by NWS

Home | Current Version | Previous Version | Graphics & Text | Print | Product List | Glossary On
Versions: 1 2 3 4 5 6 7 8 9 10 11 12 13 14 15 16 17 18 19 20 21 22 23 24 25 26 27 28 29 30 31
521
FTUS43 KLOT 242053 AAB
TAFDPA
TAF AMD
KDPA 242053Z 2421/2518 35007KT 5SM BR OVC004
     FM242300 30009KT 3SM BR OVC004
     FM250300 29013KT P6SM BKN009 OVC012
      TEMPO 2506/2507 3SM -RASN
     FM250700 29014G21KT 2SM -SN OVC015
     FM251400 30018G26KT P6SM -SN OVC020=

USA.gov is the U.S. government's official web portal to all federal, state and local government web resources and services.